sensor_id;sensor_type;location;lat;lon;timestamp;temperature;humidity
66582;SHT31;53438;48.898;2.308;2022-09-09T03:00:07;17.70;72.56
66582;SHT31;53438;48.898;2.308;2022-09-09T03:02:33;17.68;72.25
66582;SHT31;53438;48.898;2.308;2022-09-09T03:04:58;17.78;72.24
66582;SHT31;53438;48.898;2.308;2022-09-09T03:07:24;17.86;71.96
66582;SHT31;53438;48.898;2.308;2022-09-09T03:09:49;17.89;72.07
66582;SHT31;53438;48.898;2.308;2022-09-09T03:12:14;17.76;72.07
66582;SHT31;53438;48.898;2.308;2022-09-09T03:14:41;17.68;72.51
66582;SHT31;53438;48.898;2.308;2022-09-09T03:17:08;17.70;72.52
66582;SHT31;53438;48.898;2.308;2022-09-09T03:19:34;17.69;72.64
66582;SHT31;53438;48.898;2.308;2022-09-09T03:22:00;17.58;72.45
66582;SHT31;53438;48.898;2.308;2022-09-09T03:24:25;17.80;72.16
66582;SHT31;53438;48.898;2.308;2022-09-09T03:26:51;17.53;72.56
66582;SHT31;53438;48.898;2.308;2022-09-09T03:29:17;17.66;72.36
66582;SHT31;53438;48.898;2.308;2022-09-09T03:31:43;17.62;72.65
66582;SHT31;53438;48.898;2.308;2022-09-09T03:34:10;17.80;72.25
66582;SHT31;53438;48.898;2.308;2022-09-09T03:36:35;17.58;72.64
66582;SHT31;53438;48.898;2.308;2022-09-09T03:39:01;17.73;72.39
66582;SHT31;53438;48.898;2.308;2022-09-09T03:41:28;17.79;72.11
66582;SHT31;53438;48.898;2.308;2022-09-09T03:43:53;17.75;72.30
66582;SHT31;53438;48.898;2.308;2022-09-09T03:46:20;17.86;72.06
66582;SHT31;53438;48.898;2.308;2022-09-09T03:48:46;17.80;71.82
66582;SHT31;53438;48.898;2.308;2022-09-09T03:51:12;17.68;72.32
66582;SHT31;53438;48.898;2.308;2022-09-09T03:53:38;17.72;72.20
66582;SHT31;53438;48.898;2.308;2022-09-09T03:56:06;17.56;72.61
66582;SHT31;53438;48.898;2.308;2022-09-09T03:58:37;17.59;72.90
66582;SHT31;53438;48.898;2.308;2022-09-09T04:01:11;17.62;72.69
66582;SHT31;53438;48.898;2.308;2022-09-09T04:03:40;17.62;72.76
66582;SHT31;53438;48.898;2.308;2022-09-09T04:06:07;17.70;72.60
66582;SHT31;53438;48.898;2.308;2022-09-09T04:08:33;17.66;72.40
66582;SHT31;53438;48.898;2.308;2022-09-09T04:10:59;17.66;72.47
66582;SHT31;53438;48.898;2.308;2022-09-09T04:13:27;17.70;72.37
66582;SHT31;53438;48.898;2.308;2022-09-09T04:15:57;17.73;72.27
66582;SHT31;53438;48.898;2.308;2022-09-09T04:18:23;17.70;72.48
66582;SHT31;53438;48.898;2.308;2022-09-09T04:20:50;17.75;72.21
66582;SHT31;53438;48.898;2.308;2022-09-09T04:23:17;17.52;72.76
66582;SHT31;53438;48.898;2.308;2022-09-09T04:25:52;17.48;73.08
66582;SHT31;53438;48.898;2.308;2022-09-09T04:28:19;17.59;72.74
66582;SHT31;53438;48.898;2.308;2022-09-09T04:30:45;17.70;72.56
66582;SHT31;53438;48.898;2.308;2022-09-09T04:33:11;17.75;72.52
66582;SHT31;53438;48.898;2.308;2022-09-09T04:35:36;17.63;72.88
66582;SHT31;53438;48.898;2.308;2022-09-09T04:38:03;17.53;72.98
66582;SHT31;53438;48.898;2.308;2022-09-09T04:40:29;17.62;72.57
66582;SHT31;53438;48.898;2.308;2022-09-09T04:42:57;17.69;72.50
66582;SHT31;53438;48.898;2.308;2022-09-09T04:45:23;17.52;73.10
66582;SHT31;53438;48.898;2.308;2022-09-09T04:47:48;17.56;73.40
66582;SHT31;53438;48.898;2.308;2022-09-09T04:50:14;17.59;72.89
66582;SHT31;53438;48.898;2.308;2022-09-09T04:52:39;17.48;73.21
66582;SHT31;53438;48.898;2.308;2022-09-09T04:55:06;17.45;73.12
66582;SHT31;53438;48.898;2.308;2022-09-09T04:57:32;17.38;73.33
66582;SHT31;53438;48.898;2.308;2022-09-09T04:59:59;17.53;72.93
66582;SHT31;53438;48.898;2.308;2022-09-09T05:02:25;17.45;73.20
66582;SHT31;53438;48.898;2.308;2022-09-09T05:04:51;17.43;72.99
66582;SHT31;53438;48.898;2.308;2022-09-09T05:07:16;17.48;73.21
66582;SHT31;53438;48.898;2.308;2022-09-09T05:09:41;17.28;73.59
66582;SHT31;53438;48.898;2.308;2022-09-09T05:12:07;17.41;73.34
66582;SHT31;53438;48.898;2.308;2022-09-09T05:14:33;17.36;73.48
66582;SHT31;53438;48.898;2.308;2022-09-09T05:16:58;17.36;73.47
66582;SHT31;53438;48.898;2.308;2022-09-09T05:19:24;17.52;73.10
66582;SHT31;53438;48.898;2.308;2022-09-09T05:21:49;17.49;72.94
66582;SHT31;53438;48.898;2.308;2022-09-09T05:24:15;17.48;73.02
66582;SHT31;53438;48.898;2.308;2022-09-09T05:26:40;17.43;73.14
66582;SHT31;53438;48.898;2.308;2022-09-09T05:29:06;17.41;73.10
66582;SHT31;53438;48.898;2.308;2022-09-09T05:31:31;17.46;73.09
66582;SHT31;53438;48.898;2.308;2022-09-09T05:33:58;17.56;72.74
66582;SHT31;53438;48.898;2.308;2022-09-09T05:36:24;17.61;72.91
66582;SHT31;53438;48.898;2.308;2022-09-09T05:38:49;17.39;73.15
66582;SHT31;53438;48.898;2.308;2022-09-09T05:41:16;17.34;73.53
66582;SHT31;53438;48.898;2.308;2022-09-09T05:43:43;17.53;73.33
66582;SHT31;53438;48.898;2.308;2022-09-09T05:46:13;17.55;73.03
66582;SHT31;53438;48.898;2.308;2022-09-09T05:48:41;17.59;73.10
66582;SHT31;53438;48.898;2.308;2022-09-09T05:51:10;17.73;72.90
66582;SHT31;53438;48.898;2.308;2022-09-09T05:53:37;17.69;72.94
66582;SHT31;53438;48.898;2.308;2022-09-09T05:56:13;17.72;72.66
66582;SHT31;53438;48.898;2.308;2022-09-09T05:58:40;17.89;72.24
66582;SHT31;53438;48.898;2.308;2022-09-09T06:01:13;17.90;72.27
66582;SHT31;53438;48.898;2.308;2022-09-09T06:03:41;17.96;72.32
66582;SHT31;53438;48.898;2.308;2022-09-09T06:06:12;17.91;72.59
66582;SHT31;53438;48.898;2.308;2022-09-09T06:08:39;17.75;72.56
66582;SHT31;53438;48.898;2.308;2022-09-09T06:11:13;17.96;72.39
66582;SHT31;53438;48.898;2.308;2022-09-09T06:13:39;17.82;72.74
66582;SHT31;53438;48.898;2.308;2022-09-09T06:16:14;17.87;72.69
66582;SHT31;53438;48.898;2.308;2022-09-09T06:18:40;17.93;72.55
66582;SHT31;53438;48.898;2.308;2022-09-09T06:21:15;17.79;72.96
66582;SHT31;53438;48.898;2.308;2022-09-09T06:23:41;18.00;72.57
66582;SHT31;53438;48.898;2.308;2022-09-09T06:26:16;17.76;72.64
66582;SHT31;53438;48.898;2.308;2022-09-09T06:28:45;17.83;72.64
66582;SHT31;53438;48.898;2.308;2022-09-09T06:31:14;17.93;72.71
66582;SHT31;53438;48.898;2.308;2022-09-09T06:33:41;17.97;72.28
66582;SHT31;53438;48.898;2.308;2022-09-09T06:36:11;17.96;72.18
66582;SHT31;53438;48.898;2.308;2022-09-09T06:38:37;17.87;72.66
66582;SHT31;53438;48.898;2.308;2022-09-09T06:41:03;17.90;72.26
66582;SHT31;53438;48.898;2.308;2022-09-09T06:43:31;17.87;72.49
66582;SHT31;53438;48.898;2.308;2022-09-09T06:45:59;18.10;72.24
66582;SHT31;53438;48.898;2.308;2022-09-09T06:48:25;17.93;72.67
66582;SHT31;53438;48.898;2.308;2022-09-09T06:51:14;17.93;71.90
66582;SHT31;53438;48.898;2.308;2022-09-09T06:53:41;17.93;72.12
66582;SHT31;53438;48.898;2.308;2022-09-09T06:58:41;18.09;72.10
66582;SHT31;53438;48.898;2.308;2022-09-09T07:01:12;18.04;71.96
66582;SHT31;53438;48.898;2.308;2022-09-09T07:03:38;18.18;71.68
66582;SHT31;53438;48.898;2.308;2022-09-09T07:06:05;18.07;71.80
66582;SHT31;53438;48.898;2.308;2022-09-09T07:08:31;18.00;71.83
66582;SHT31;53438;48.898;2.308;2022-09-09T07:11:03;18.00;71.86
66582;SHT31;53438;48.898;2.308;2022-09-09T07:13:30;18.04;71.59
66582;SHT31;53438;48.898;2.308;2022-09-09T07:16:04;18.06;71.60
66582;SHT31;53438;48.898;2.308;2022-09-09T07:18:29;18.00;71.78
66582;SHT31;53438;48.898;2.308;2022-09-09T07:20:56;18.09;71.70
66582;SHT31;53438;48.898;2.308;2022-09-09T07:23:23;18.17;71.02
66582;SHT31;53438;48.898;2.308;2022-09-09T07:25:49;18.14;71.37
66582;SHT31;53438;48.898;2.308;2022-09-09T07:28:15;18.24;71.30
66582;SHT31;53438;48.898;2.308;2022-09-09T07:30:41;18.28;71.15
66582;SHT31;53438;48.898;2.308;2022-09-09T07:33:08;18.13;71.18
66582;SHT31;53438;48.898;2.308;2022-09-09T07:35:35;18.17;70.76
66582;SHT31;53438;48.898;2.308;2022-09-09T07:38:02;18.18;71.30
66582;SHT31;53438;48.898;2.308;2022-09-09T07:40:29;18.11;70.88
66582;SHT31;53438;48.898;2.308;2022-09-09T07:42:55;18.27;70.64
66582;SHT31;53438;48.898;2.308;2022-09-09T07:45:21;18.30;70.42
66582;SHT31;53438;48.898;2.308;2022-09-09T07:47:46;18.33;70.27
66582;SHT31;53438;48.898;2.308;2022-09-09T07:50:13;18.45;70.05
66582;SHT31;53438;48.898;2.308;2022-09-09T07:52:38;18.61;70.26
66582;SHT31;53438;48.898;2.308;2022-09-09T07:55:04;18.52;70.30
66582;SHT31;53438;48.898;2.308;2022-09-09T07:57:30;18.64;70.25
66582;SHT31;53438;48.898;2.308;2022-09-09T07:59:56;18.67;70.13
66582;SHT31;53438;48.898;2.308;2022-09-09T08:02:22;18.58;70.52
66582;SHT31;53438;48.898;2.308;2022-09-09T08:04:48;18.58;70.35
66582;SHT31;53438;48.898;2.308;2022-09-09T08:07:14;18.61;70.46
66582;SHT31;53438;48.898;2.308;2022-09-09T08:09:39;18.52;70.11
66582;SHT31;53438;48.898;2.308;2022-09-09T08:12:04;18.55;70.00
66582;SHT31;53438;48.898;2.308;2022-09-09T08:14:31;18.65;69.90
66582;SHT31;53438;48.898;2.308;2022-09-09T08:16:57;18.73;69.38
66582;SHT31;53438;48.898;2.308;2022-09-09T08:19:22;18.67;69.11
66582;SHT31;53438;48.898;2.308;2022-09-09T08:21:48;18.71;69.54
66582;SHT31;53438;48.898;2.308;2022-09-09T08:24:14;18.82;68.85
66582;SHT31;53438;48.898;2.308;2022-09-09T08:26:42;18.78;69.12
66582;SHT31;53438;48.898;2.308;2022-09-09T08:29:09;18.72;69.11
66582;SHT31;53438;48.898;2.308;2022-09-09T08:31:41;18.95;68.76
66582;SHT31;53438;48.898;2.308;2022-09-09T08:34:08;19.00;68.36
66582;SHT31;53438;48.898;2.308;2022-09-09T08:36:39;18.89;68.40
66582;SHT31;53438;48.898;2.308;2022-09-09T08:39:06;18.88;68.41
66582;SHT31;53438;48.898;2.308;2022-09-09T08:49:06;19.08;68.23
66582;SHT31;53438;48.898;2.308;2022-09-09T08:51:38;18.99;67.79
66582;SHT31;53438;48.898;2.308;2022-09-09T08:54:04;19.06;68.08
66582;SHT31;53438;48.898;2.308;2022-09-09T08:56:31;19.20;67.72
66582;SHT31;53438;48.898;2.308;2022-09-09T08:58:59;19.24;67.65
66582;SHT31;53438;48.898;2.308;2022-09-09T09:01:52;19.39;66.55
66582;SHT31;53438;48.898;2.308;2022-09-09T09:13:10;19.74;65.41
66582;SHT31;53438;48.898;2.308;2022-09-09T09:15:38;19.73;65.80
66582;SHT31;53438;48.898;2.308;2022-09-09T09:18:07;19.54;66.07
66582;SHT31;53438;48.898;2.308;2022-09-09T09:20:50;19.67;65.71
66582;SHT31;53438;48.898;2.308;2022-09-09T09:23:32;19.26;66.02
66582;SHT31;53438;48.898;2.308;2022-09-09T09:26:00;19.46;66.14
66582;SHT31;53438;48.898;2.308;2022-09-09T09:28:31;19.67;65.80
66582;SHT31;53438;48.898;2.308;2022-09-09T09:31:01;19.60;65.48
66582;SHT31;53438;48.898;2.308;2022-09-09T09:33:33;19.74;65.87
66582;SHT31;53438;48.898;2.308;2022-09-09T09:36:00;19.74;65.57
66582;SHT31;53438;48.898;2.308;2022-09-09T09:38:28;19.87;65.16
66582;SHT31;53438;48.898;2.308;2022-09-09T09:40:55;19.73;65.28
66582;SHT31;53438;48.898;2.308;2022-09-09T09:43:31;19.88;65.37
66582;SHT31;53438;48.898;2.308;2022-09-09T09:45:57;19.57;65.81
66582;SHT31;53438;48.898;2.308;2022-09-09T09:48:23;19.73;64.99
66582;SHT31;53438;48.898;2.308;2022-09-09T09:50:55;19.85;65.09
66582;SHT31;53438;48.898;2.308;2022-09-09T09:53:30;19.79;65.44
66582;SHT31;53438;48.898;2.308;2022-09-09T09:56:11;19.87;64.89
66582;SHT31;53438;48.898;2.308;2022-09-09T10:01:28;20.04;65.24
66582;SHT31;53438;48.898;2.308;2022-09-09T10:03:58;19.89;65.13
66582;SHT31;53438;48.898;2.308;2022-09-09T10:06:34;19.98;64.79
66582;SHT31;53438;48.898;2.308;2022-09-09T10:09:01;19.88;65.50
66582;SHT31;53438;48.898;2.308;2022-09-09T10:11:49;19.85;65.18
66582;SHT31;53438;48.898;2.308;2022-09-09T10:14:21;19.71;64.63
66582;SHT31;53438;48.898;2.308;2022-09-09T10:19:33;19.70;64.94
66582;SHT31;53438;48.898;2.308;2022-09-09T10:30:14;20.35;63.24
66582;SHT31;53438;48.898;2.308;2022-09-09T10:33:09;20.42;62.77
66582;SHT31;53438;48.898;2.308;2022-09-09T10:35:46;20.40;62.53
66582;SHT31;53438;48.898;2.308;2022-09-09T10:38:18;20.47;63.01
66582;SHT31;53438;48.898;2.308;2022-09-09T10:41:01;20.62;62.68
66582;SHT31;53438;48.898;2.308;2022-09-09T10:43:45;20.62;62.74
66582;SHT31;53438;48.898;2.308;2022-09-09T10:46:42;20.73;61.90
66582;SHT31;53438;48.898;2.308;2022-09-09T10:52:21;20.60;62.23
66582;SHT31;53438;48.898;2.308;2022-09-09T11:00:03;20.43;62.55
66582;SHT31;53438;48.898;2.308;2022-09-09T11:02:31;20.56;62.96
66582;SHT31;53438;48.898;2.308;2022-09-09T11:05:05;20.53;63.06
66582;SHT31;53438;48.898;2.308;2022-09-09T11:07:42;20.65;63.32
66582;SHT31;53438;48.898;2.308;2022-09-09T11:12:50;20.37;65.05
66582;SHT31;53438;48.898;2.308;2022-09-09T11:15:44;20.43;64.47
66582;SHT31;53438;48.898;2.308;2022-09-09T11:18:20;20.55;64.10
66582;SHT31;53438;48.898;2.308;2022-09-09T11:20:49;20.55;63.11
66582;SHT31;53438;48.898;2.308;2022-09-09T11:23:25;20.60;62.19
66582;SHT31;53438;48.898;2.308;2022-09-09T11:25:56;20.70;62.23
66582;SHT31;53438;48.898;2.308;2022-09-09T11:28:32;20.69;61.63
66582;SHT31;53438;48.898;2.308;2022-09-09T11:37:09;20.39;61.11
66582;SHT31;53438;48.898;2.308;2022-09-09T11:44:37;20.62;61.82
66582;SHT31;53438;48.898;2.308;2022-09-09T11:47:02;20.62;61.90
66582;SHT31;53438;48.898;2.308;2022-09-09T11:49:46;20.67;61.85
66582;SHT31;53438;48.898;2.308;2022-09-09T11:52:35;20.63;61.98
66582;SHT31;53438;48.898;2.308;2022-09-09T11:55:30;20.57;62.86
66582;SHT31;53438;48.898;2.308;2022-09-09T11:58:06;20.53;63.46
66582;SHT31;53438;48.898;2.308;2022-09-09T12:00:45;20.39;63.76
66582;SHT31;53438;48.898;2.308;2022-09-09T12:03:40;20.47;63.63
66582;SHT31;53438;48.898;2.308;2022-09-09T12:06:17;20.28;64.03
66582;SHT31;53438;48.898;2.308;2022-09-09T12:08:45;20.28;64.19
66582;SHT31;53438;48.898;2.308;2022-09-09T12:11:12;20.05;64.05
66582;SHT31;53438;48.898;2.308;2022-09-09T12:13:56;20.18;63.98
66582;SHT31;53438;48.898;2.308;2022-09-09T12:16:36;20.39;64.54
66582;SHT31;53438;48.898;2.308;2022-09-09T12:19:23;20.42;64.24
66582;SHT31;53438;48.898;2.308;2022-09-09T12:22:26;20.36;64.23
66582;SHT31;53438;48.898;2.308;2022-09-09T12:28:27;20.15;64.99
66582;SHT31;53438;48.898;2.308;2022-09-09T12:31:14;20.22;67.86
66582;SHT31;53438;48.898;2.308;2022-09-09T12:33:44;19.98;69.22
66582;SHT31;53438;48.898;2.308;2022-09-09T12:36:19;20.02;70.42
66582;SHT31;53438;48.898;2.308;2022-09-09T12:38:46;19.56;71.03
66582;SHT31;53438;48.898;2.308;2022-09-09T12:41:26;19.50;71.47
66582;SHT31;53438;48.898;2.308;2022-09-09T12:44:06;19.67;71.95
66582;SHT31;53438;48.898;2.308;2022-09-09T12:46:39;19.77;71.38
66582;SHT31;53438;48.898;2.308;2022-09-09T12:49:05;19.74;71.01
66582;SHT31;53438;48.898;2.308;2022-09-09T12:51:48;19.87;71.65
66582;SHT31;53438;48.898;2.308;2022-09-09T12:54:14;19.94;71.95
66582;SHT31;53438;48.898;2.308;2022-09-09T12:56:45;19.67;72.80
66582;SHT31;53438;48.898;2.308;2022-09-09T12:59:36;19.87;73.48
66582;SHT31;53438;48.898;2.308;2022-09-09T13:02:01;19.95;72.80
66582;SHT31;53438;48.898;2.308;2022-09-09T13:04:28;20.01;72.54
66582;SHT31;53438;48.898;2.308;2022-09-09T13:06:53;19.98;72.26
66582;SHT31;53438;48.898;2.308;2022-09-09T13:09:20;19.98;73.17
66582;SHT31;53438;48.898;2.308;2022-09-09T13:11:52;19.91;72.97
66582;SHT31;53438;48.898;2.308;2022-09-09T13:14:30;20.02;72.72
66582;SHT31;53438;48.898;2.308;2022-09-09T13:17:02;20.01;72.49
66582;SHT31;53438;48.898;2.308;2022-09-09T13:19:35;19.89;72.12
66582;SHT31;53438;48.898;2.308;2022-09-09T13:22:20;19.82;72.67
66582;SHT31;53438;48.898;2.308;2022-09-09T13:24:46;19.47;72.76
66582;SHT31;53438;48.898;2.308;2022-09-09T13:27:31;19.67;72.63
66582;SHT31;53438;48.898;2.308;2022-09-09T13:29:58;19.71;72.92
66582;SHT31;53438;48.898;2.308;2022-09-09T13:32:25;19.61;73.18
66582;SHT31;53438;48.898;2.308;2022-09-09T13:34:59;19.79;73.68
66582;SHT31;53438;48.898;2.308;2022-09-09T13:37:34;19.75;73.79
66582;SHT31;53438;48.898;2.308;2022-09-09T13:40:01;19.74;74.34
66582;SHT31;53438;48.898;2.308;2022-09-09T13:42:29;19.91;73.60
66582;SHT31;53438;48.898;2.308;2022-09-09T13:44:57;19.66;73.63
66582;SHT31;53438;48.898;2.308;2022-09-09T13:47:32;19.39;74.09
66582;SHT31;53438;48.898;2.308;2022-09-09T13:49:58;19.47;74.62
66582;SHT31;53438;48.898;2.308;2022-09-09T13:52:23;19.71;73.99
66582;SHT31;53438;48.898;2.308;2022-09-09T13:54:50;19.78;74.06
66582;SHT31;53438;48.898;2.308;2022-09-09T13:57:24;19.68;73.38
66582;SHT31;53438;48.898;2.308;2022-09-09T13:59:51;19.51;74.34
66582;SHT31;53438;48.898;2.308;2022-09-09T14:02:17;19.37;73.68
66582;SHT31;53438;48.898;2.308;2022-09-09T14:04:43;19.50;73.44
66582;SHT31;53438;48.898;2.308;2022-09-09T14:07:14;19.34;73.31
66582;SHT31;53438;48.898;2.308;2022-09-09T14:09:40;19.43;73.67
66582;SHT31;53438;48.898;2.308;2022-09-09T14:12:12;19.63;73.22
66582;SHT31;53438;48.898;2.308;2022-09-09T14:14:39;19.67;73.13
66582;SHT31;53438;48.898;2.308;2022-09-09T14:17:04;19.19;74.18
66582;SHT31;53438;48.898;2.308;2022-09-09T14:19:30;19.49;73.56
66582;SHT31;53438;48.898;2.308;2022-09-09T14:21:57;19.67;73.58
66582;SHT31;53438;48.898;2.308;2022-09-09T14:24:22;19.63;72.17
66582;SHT31;53438;48.898;2.308;2022-09-09T14:26:47;19.33;71.82
66582;SHT31;53438;48.898;2.308;2022-09-09T14:29:13;19.36;72.19
66582;SHT31;53438;48.898;2.308;2022-09-09T14:31:38;19.53;72.64
66582;SHT31;53438;48.898;2.308;2022-09-09T14:34:03;19.58;72.80
66582;SHT31;53438;48.898;2.308;2022-09-09T14:36:29;19.77;72.43
66582;SHT31;53438;48.898;2.308;2022-09-09T14:38:55;19.77;72.05
66582;SHT31;53438;48.898;2.308;2022-09-09T14:41:20;19.94;70.97
66582;SHT31;53438;48.898;2.308;2022-09-09T14:43:48;20.04;71.56
66582;SHT31;53438;48.898;2.308;2022-09-09T14:46:15;20.28;69.84
66582;SHT31;53438;48.898;2.308;2022-09-09T14:48:41;20.12;69.63
66582;SHT31;53438;48.898;2.308;2022-09-09T14:51:20;20.29;70.49
66582;SHT31;53438;48.898;2.308;2022-09-09T14:53:47;20.35;69.59
66582;SHT31;53438;48.898;2.308;2022-09-09T14:56:16;20.25;69.38
66582;SHT31;53438;48.898;2.308;2022-09-09T14:58:42;20.26;69.79
66582;SHT31;53438;48.898;2.308;2022-09-09T15:01:13;20.33;69.79
66582;SHT31;53438;48.898;2.308;2022-09-09T15:03:40;20.28;69.60
66582;SHT31;53438;48.898;2.308;2022-09-09T15:06:07;20.33;69.55
66582;SHT31;53438;48.898;2.308;2022-09-09T15:08:36;20.02;70.15
66582;SHT31;53438;48.898;2.308;2022-09-09T15:11:03;20.35;69.72
66582;SHT31;53438;48.898;2.308;2022-09-09T15:13:29;20.40;69.09
66582;SHT31;53438;48.898;2.308;2022-09-09T15:15:55;20.72;68.86
66582;SHT31;53438;48.898;2.308;2022-09-09T15:18:21;20.96;68.28
66582;SHT31;53438;48.898;2.308;2022-09-09T15:20:46;21.11;66.84
66582;SHT31;53438;48.898;2.308;2022-09-09T15:23:13;21.23;66.67
66582;SHT31;53438;48.898;2.308;2022-09-09T15:25:50;21.27;66.32
66582;SHT31;53438;48.898;2.308;2022-09-09T15:28:15;21.18;65.13
66582;SHT31;53438;48.898;2.308;2022-09-09T15:30:41;21.24;66.38
66582;SHT31;53438;48.898;2.308;2022-09-09T15:33:09;21.18;66.42
66582;SHT31;53438;48.898;2.308;2022-09-09T15:35:34;20.98;66.40
66582;SHT31;53438;48.898;2.308;2022-09-09T15:38:02;20.96;65.93
66582;SHT31;53438;48.898;2.308;2022-09-09T15:40:30;20.56;66.53
66582;SHT31;53438;48.898;2.308;2022-09-09T15:42:57;20.59;67.07
66582;SHT31;53438;48.898;2.308;2022-09-09T15:45:22;20.76;67.02
66582;SHT31;53438;48.898;2.308;2022-09-09T15:47:48;20.81;66.94
66582;SHT31;53438;48.898;2.308;2022-09-09T15:50:14;20.80;66.81
66582;SHT31;53438;48.898;2.308;2022-09-09T15:52:39;20.77;66.51
66582;SHT31;53438;48.898;2.308;2022-09-09T15:55:05;20.80;66.26
66582;SHT31;53438;48.898;2.308;2022-09-09T15:57:30;20.79;66.60
66582;SHT31;53438;48.898;2.308;2022-09-09T15:59:56;20.72;67.08
66582;SHT31;53438;48.898;2.308;2022-09-09T16:02:21;20.55;67.96
66582;SHT31;53438;48.898;2.308;2022-09-09T16:04:46;20.56;67.87
66582;SHT31;53438;48.898;2.308;2022-09-09T16:07:12;20.63;68.05
66582;SHT31;53438;48.898;2.308;2022-09-09T16:09:37;20.53;68.01
66582;SHT31;53438;48.898;2.308;2022-09-09T16:12:04;20.62;68.20
66582;SHT31;53438;48.898;2.308;2022-09-09T16:14:35;20.57;68.80
66582;SHT31;53438;48.898;2.308;2022-09-09T16:17:04;20.62;69.08
66582;SHT31;53438;48.898;2.308;2022-09-09T16:19:31;20.72;69.18
66582;SHT31;53438;48.898;2.308;2022-09-09T16:21:56;20.35;70.59
66582;SHT31;53438;48.898;2.308;2022-09-09T16:24:22;20.45;71.08
66582;SHT31;53438;48.898;2.308;2022-09-09T16:26:50;20.07;72.38
66582;SHT31;53438;48.898;2.308;2022-09-09T16:29:17;20.21;72.26
66582;SHT31;53438;48.898;2.308;2022-09-09T16:31:47;19.99;73.68
66582;SHT31;53438;48.898;2.308;2022-09-09T16:34:13;20.05;73.40
66582;SHT31;53438;48.898;2.308;2022-09-09T16:36:41;20.12;73.33
66582;SHT31;53438;48.898;2.308;2022-09-09T16:39:09;20.14;73.01
66582;SHT31;53438;48.898;2.308;2022-09-09T16:41:35;20.14;73.83
66582;SHT31;53438;48.898;2.308;2022-09-09T16:44:04;20.14;74.06
66582;SHT31;53438;48.898;2.308;2022-09-09T16:46:31;20.14;74.58
66582;SHT31;53438;48.898;2.308;2022-09-09T16:48:58;20.12;74.62
66582;SHT31;53438;48.898;2.308;2022-09-09T16:51:26;20.19;74.19
66582;SHT31;53438;48.898;2.308;2022-09-09T16:53:53;20.15;73.18
66582;SHT31;53438;48.898;2.308;2022-09-09T16:56:24;20.02;73.68
66582;SHT31;53438;48.898;2.308;2022-09-09T16:58:55;20.08;73.33
66582;SHT31;53438;48.898;2.308;2022-09-09T17:01:22;20.05;73.88
66582;SHT31;53438;48.898;2.308;2022-09-09T17:03:47;20.04;73.87
66582;SHT31;53438;48.898;2.308;2022-09-09T17:06:16;20.01;73.49
66582;SHT31;53438;48.898;2.308;2022-09-09T17:08:42;20.21;72.71
66582;SHT31;53438;48.898;2.308;2022-09-09T17:11:12;20.01;72.47
66582;SHT31;53438;48.898;2.308;2022-09-09T17:13:39;20.07;72.17
66582;SHT31;53438;48.898;2.308;2022-09-09T17:16:06;20.01;72.23
66582;SHT31;53438;48.898;2.308;2022-09-09T17:18:31;19.98;71.83
66582;SHT31;53438;48.898;2.308;2022-09-09T17:21:09;20.02;71.75
66582;SHT31;53438;48.898;2.308;2022-09-09T17:23:36;19.94;71.74
66582;SHT31;53438;48.898;2.308;2022-09-09T17:26:04;19.84;71.93
66582;SHT31;53438;48.898;2.308;2022-09-09T17:28:31;19.79;72.23
66582;SHT31;53438;48.898;2.308;2022-09-09T17:31:00;19.78;72.05
66582;SHT31;53438;48.898;2.308;2022-09-09T17:33:28;19.63;71.89
66582;SHT31;53438;48.898;2.308;2022-09-09T17:35:59;19.64;72.29
66582;SHT31;53438;48.898;2.308;2022-09-09T17:38:26;19.70;72.14
66582;SHT31;53438;48.898;2.308;2022-09-09T17:41:22;19.73;72.08
66582;SHT31;53438;48.898;2.308;2022-09-09T17:43:49;19.54;71.97
66582;SHT31;53438;48.898;2.308;2022-09-09T17:46:24;19.53;71.14
66582;SHT31;53438;48.898;2.308;2022-09-09T17:48:52;19.50;70.75
66582;SHT31;53438;48.898;2.308;2022-09-09T17:51:20;19.39;71.03
66582;SHT31;53438;48.898;2.308;2022-09-09T17:53:51;19.36;71.72
66582;SHT31;53438;48.898;2.308;2022-09-09T17:56:20;19.34;71.88
66582;SHT31;53438;48.898;2.308;2022-09-09T17:58:47;19.49;71.74
66582;SHT31;53438;48.898;2.308;2022-09-09T18:01:18;19.53;71.83
66582;SHT31;53438;48.898;2.308;2022-09-09T18:03:45;19.58;72.11
66582;SHT31;53438;48.898;2.308;2022-09-09T18:06:21;19.56;72.10
66582;SHT31;53438;48.898;2.308;2022-09-09T18:08:50;19.56;72.03
66582;SHT31;53438;48.898;2.308;2022-09-09T18:11:18;19.24;72.94
66582;SHT31;53438;48.898;2.308;2022-09-09T18:13:55;19.24;72.88
66582;SHT31;53438;48.898;2.308;2022-09-09T18:16:23;19.34;72.43
66582;SHT31;53438;48.898;2.308;2022-09-09T18:18:50;19.22;73.39
66582;SHT31;53438;48.898;2.308;2022-09-09T18:21:18;19.26;73.28
66582;SHT31;53438;48.898;2.308;2022-09-09T18:23:45;19.03;73.76
66582;SHT31;53438;48.898;2.308;2022-09-09T18:26:16;19.19;73.41
66582;SHT31;53438;48.898;2.308;2022-09-09T18:28:46;19.19;73.52
66582;SHT31;53438;48.898;2.308;2022-09-09T18:31:13;19.16;73.77
66582;SHT31;53438;48.898;2.308;2022-09-09T18:33:41;19.22;73.83
66582;SHT31;53438;48.898;2.308;2022-09-09T18:36:12;19.27;73.94
66582;SHT31;53438;48.898;2.308;2022-09-09T18:38:39;19.29;74.18
66582;SHT31;53438;48.898;2.308;2022-09-09T18:41:16;19.33;73.93
66582;SHT31;53438;48.898;2.308;2022-09-09T18:43:42;19.26;74.33
66582;SHT31;53438;48.898;2.308;2022-09-09T18:46:09;19.26;74.21
66582;SHT31;53438;48.898;2.308;2022-09-09T18:48:34;19.16;74.55
66582;SHT31;53438;48.898;2.308;2022-09-09T18:51:04;19.17;74.53
66582;SHT31;53438;48.898;2.308;2022-09-09T18:53:30;19.15;74.27
66582;SHT31;53438;48.898;2.308;2022-09-09T18:56:08;19.00;74.16
66582;SHT31;53438;48.898;2.308;2022-09-09T18:58:34;18.91;73.68
66582;SHT31;53438;48.898;2.308;2022-09-09T19:01:01;18.99;73.65
66582;SHT31;53438;48.898;2.308;2022-09-09T19:03:30;19.03;73.67
66582;SHT31;53438;48.898;2.308;2022-09-09T19:06:07;19.03;73.54
66582;SHT31;53438;48.898;2.308;2022-09-09T19:08:34;18.95;73.80
66582;SHT31;53438;48.898;2.308;2022-09-09T19:11:02;18.89;73.44
66582;SHT31;53438;48.898;2.308;2022-09-09T19:13:29;18.95;73.60
66582;SHT31;53438;48.898;2.308;2022-09-09T19:16:01;18.89;73.32
66582;SHT31;53438;48.898;2.308;2022-09-09T19:18:27;18.82;73.28
66582;SHT31;53438;48.898;2.308;2022-09-09T19:20:52;18.72;73.90
66582;SHT31;53438;48.898;2.308;2022-09-09T19:23:17;18.75;73.62
66582;SHT31;53438;48.898;2.308;2022-09-09T19:25:43;18.85;73.42
66582;SHT31;53438;48.898;2.308;2022-09-09T19:28:09;18.79;73.38
66582;SHT31;53438;48.898;2.308;2022-09-09T19:30:34;18.85;73.38
66582;SHT31;53438;48.898;2.308;2022-09-09T19:33:00;18.65;74.13
66582;SHT31;53438;48.898;2.308;2022-09-09T19:35:25;18.72;74.02
66582;SHT31;53438;48.898;2.308;2022-09-09T19:37:52;18.68;74.06
66582;SHT31;53438;48.898;2.308;2022-09-09T19:40:18;18.84;73.99